sensor_id;sensor_type;location;lat;lon;timestamp;temperature;humidity
17567;DHT22;8901;52.088;5.084;2022-08-01T00:01:28;21.30;99.90
17567;DHT22;8901;52.088;5.084;2022-08-01T00:03:54;21.10;99.90
17567;DHT22;8901;52.088;5.084;2022-08-01T00:06:21;21.10;99.90
17567;DHT22;8901;52.088;5.084;2022-08-01T00:08:48;21.20;99.90
17567;DHT22;8901;52.088;5.084;2022-08-01T00:11:15;21.30;99.90
17567;DHT22;8901;52.088;5.084;2022-08-01T00:13:43;21.30;99.90
17567;DHT22;8901;52.088;5.084;2022-08-01T00:16:10;21.20;99.90
17567;DHT22;8901;52.088;5.084;2022-08-01T00:18:37;21.20;99.90
17567;DHT22;8901;52.088;5.084;2022-08-01T00:21:04;21.20;99.90
17567;DHT22;8901;52.088;5.084;2022-08-01T00:23:31;21.20;99.90
17567;DHT22;8901;52.088;5.084;2022-08-01T00:25:58;21.20;99.90
17567;DHT22;8901;52.088;5.084;2022-08-01T00:28:25;21.20;99.90
17567;DHT22;8901;52.088;5.084;2022-08-01T00:30:53;21.20;99.90
17567;DHT22;8901;52.088;5.084;2022-08-01T00:33:20;21.10;99.90
17567;DHT22;8901;52.088;5.084;2022-08-01T00:35:46;21.10;99.90
17567;DHT22;8901;52.088;5.084;2022-08-01T00:38:13;21.20;99.90
17567;DHT22;8901;52.088;5.084;2022-08-01T00:40:40;21.10;99.90
17567;DHT22;8901;52.088;5.084;2022-08-01T00:43:07;21.20;99.90
17567;DHT22;8901;52.088;5.084;2022-08-01T00:45:33;21.10;99.90
17567;DHT22;8901;52.088;5.084;2022-08-01T00:48:02;21.20;99.90
17567;DHT22;8901;52.088;5.084;2022-08-01T00:50:29;21.00;99.90
17567;DHT22;8901;52.088;5.084;2022-08-01T00:52:58;21.00;99.90
17567;DHT22;8901;52.088;5.084;2022-08-01T00:55:25;21.10;99.90
17567;DHT22;8901;52.088;5.084;2022-08-01T00:57:52;21.10;99.90
17567;DHT22;8901;52.088;5.084;2022-08-01T01:00:20;21.20;99.90
17567;DHT22;8901;52.088;5.084;2022-08-01T01:02:48;21.10;99.90
17567;DHT22;8901;52.088;5.084;2022-08-01T01:05:18;21.20;99.90
17567;DHT22;8901;52.088;5.084;2022-08-01T01:07:50;21.10;99.90
17567;DHT22;8901;52.088;5.084;2022-08-01T01:10:25;21.20;99.90
17567;DHT22;8901;52.088;5.084;2022-08-01T01:12:59;21.20;99.90
17567;DHT22;8901;52.088;5.084;2022-08-01T01:15:33;21.10;99.90
17567;DHT22;8901;52.088;5.084;2022-08-01T01:18:03;21.20;99.90
17567;DHT22;8901;52.088;5.084;2022-08-01T01:20:37;21.00;99.90
17567;DHT22;8901;52.088;5.084;2022-08-01T01:23:21;20.90;99.90
17567;DHT22;8901;52.088;5.084;2022-08-01T01:26:03;21.00;99.90
17567;DHT22;8901;52.088;5.084;2022-08-01T01:28:38;21.00;99.90
17567;DHT22;8901;52.088;5.084;2022-08-01T01:31:10;21.00;99.90
17567;DHT22;8901;52.088;5.084;2022-08-01T01:33:40;21.00;99.90
17567;DHT22;8901;52.088;5.084;2022-08-01T01:36:09;21.00;99.90
17567;DHT22;8901;52.088;5.084;2022-08-01T01:38:42;21.00;99.90
17567;DHT22;8901;52.088;5.084;2022-08-01T01:41:09;20.90;99.90
17567;DHT22;8901;52.088;5.084;2022-08-01T01:43:39;20.80;99.90
17567;DHT22;8901;52.088;5.084;2022-08-01T01:46:09;20.90;99.90
17567;DHT22;8901;52.088;5.084;2022-08-01T01:48:38;20.90;99.90
17567;DHT22;8901;52.088;5.084;2022-08-01T01:51:07;20.90;99.90
17567;DHT22;8901;52.088;5.084;2022-08-01T01:53:35;20.80;99.90
17567;DHT22;8901;52.088;5.084;2022-08-01T01:56:03;20.70;99.90
17567;DHT22;8901;52.088;5.084;2022-08-01T01:58:33;20.80;99.90
17567;DHT22;8901;52.088;5.084;2022-08-01T02:01:01;20.90;99.90
17567;DHT22;8901;52.088;5.084;2022-08-01T02:03:30;20.90;99.90
17567;DHT22;8901;52.088;5.084;2022-08-01T02:05:59;20.80;99.90
17567;DHT22;8901;52.088;5.084;2022-08-01T02:08:29;20.70;99.90
17567;DHT22;8901;52.088;5.084;2022-08-01T02:10:57;20.70;99.90
17567;DHT22;8901;52.088;5.084;2022-08-01T02:13:43;20.90;99.90
17567;DHT22;8901;52.088;5.084;2022-08-01T02:16:11;20.80;99.90
17567;DHT22;8901;52.088;5.084;2022-08-01T02:18:41;20.70;99.90
17567;DHT22;8901;52.088;5.084;2022-08-01T02:21:09;20.60;99.90
17567;DHT22;8901;52.088;5.084;2022-08-01T02:23:39;20.30;99.90
17567;DHT22;8901;52.088;5.084;2022-08-01T02:26:10;20.20;99.90
17567;DHT22;8901;52.088;5.084;2022-08-01T02:28:45;20.30;99.90
17567;DHT22;8901;52.088;5.084;2022-08-01T02:31:17;20.50;99.90
17567;DHT22;8901;52.088;5.084;2022-08-01T02:33:54;20.60;99.90
17567;DHT22;8901;52.088;5.084;2022-08-01T02:36:26;20.60;99.90
17567;DHT22;8901;52.088;5.084;2022-08-01T02:38:54;20.50;99.90
17567;DHT22;8901;52.088;5.084;2022-08-01T02:41:22;20.50;99.90
17567;DHT22;8901;52.088;5.084;2022-08-01T02:43:52;20.40;99.90
17567;DHT22;8901;52.088;5.084;2022-08-01T02:46:25;20.40;99.90
17567;DHT22;8901;52.088;5.084;2022-08-01T02:48:56;20.40;99.90
17567;DHT22;8901;52.088;5.084;2022-08-01T02:51:26;20.50;99.90
17567;DHT22;8901;52.088;5.084;2022-08-01T02:53:55;20.50;99.90
17567;DHT22;8901;52.088;5.084;2022-08-01T02:56:24;20.40;99.90
17567;DHT22;8901;52.088;5.084;2022-08-01T02:59:01;20.30;99.90
17567;DHT22;8901;52.088;5.084;2022-08-01T03:01:29;20.40;99.90
17567;DHT22;8901;52.088;5.084;2022-08-01T03:03:58;20.50;99.90
17567;DHT22;8901;52.088;5.084;2022-08-01T03:06:26;20.50;99.90
17567;DHT22;8901;52.088;5.084;2022-08-01T03:08:55;20.30;99.90
17567;DHT22;8901;52.088;5.084;2022-08-01T03:11:24;20.30;99.90
17567;DHT22;8901;52.088;5.084;2022-08-01T03:13:52;20.40;99.90
17567;DHT22;8901;52.088;5.084;2022-08-01T03:16:21;20.40;99.90
17567;DHT22;8901;52.088;5.084;2022-08-01T03:18:48;20.30;99.90
17567;DHT22;8901;52.088;5.084;2022-08-01T03:21:19;20.30;99.90
17567;DHT22;8901;52.088;5.084;2022-08-01T03:23:48;20.40;99.90
17567;DHT22;8901;52.088;5.084;2022-08-01T03:26:16;20.30;99.90
17567;DHT22;8901;52.088;5.084;2022-08-01T03:28:44;20.40;99.90
17567;DHT22;8901;52.088;5.084;2022-08-01T03:31:13;20.40;99.90
17567;DHT22;8901;52.088;5.084;2022-08-01T03:33:40;20.40;99.90
17567;DHT22;8901;52.088;5.084;2022-08-01T03:36:09;20.50;99.90
17567;DHT22;8901;52.088;5.084;2022-08-01T03:38:39;20.20;99.90
17567;DHT22;8901;52.088;5.084;2022-08-01T03:41:10;20.20;99.90
17567;DHT22;8901;52.088;5.084;2022-08-01T03:43:44;20.20;99.90
17567;DHT22;8901;52.088;5.084;2022-08-01T03:46:17;20.30;99.90
17567;DHT22;8901;52.088;5.084;2022-08-01T03:48:48;20.20;99.90
17567;DHT22;8901;52.088;5.084;2022-08-01T03:51:18;20.40;99.90
17567;DHT22;8901;52.088;5.084;2022-08-01T03:53:47;20.30;99.90
17567;DHT22;8901;52.088;5.084;2022-08-01T03:56:18;20.30;99.90
17567;DHT22;8901;52.088;5.084;2022-08-01T03:58:46;20.40;99.90
17567;DHT22;8901;52.088;5.084;2022-08-01T04:01:13;20.30;99.90
17567;DHT22;8901;52.088;5.084;2022-08-01T04:03:41;20.40;99.90
17567;DHT22;8901;52.088;5.084;2022-08-01T04:06:08;20.30;99.90
17567;DHT22;8901;52.088;5.084;2022-08-01T04:08:36;20.20;99.90
17567;DHT22;8901;52.088;5.084;2022-08-01T04:11:04;20.10;99.90
17567;DHT22;8901;52.088;5.084;2022-08-01T04:13:32;20.10;99.90
17567;DHT22;8901;52.088;5.084;2022-08-01T04:15:59;20.20;99.90
17567;DHT22;8901;52.088;5.084;2022-08-01T04:18:26;20.20;99.90
17567;DHT22;8901;52.088;5.084;2022-08-01T04:20:53;20.20;99.90
17567;DHT22;8901;52.088;5.084;2022-08-01T04:23:23;20.20;99.90
17567;DHT22;8901;52.088;5.084;2022-08-01T04:25:51;20.30;99.90
17567;DHT22;8901;52.088;5.084;2022-08-01T04:28:22;20.30;99.90
17567;DHT22;8901;52.088;5.084;2022-08-01T04:30:50;20.40;99.90
17567;DHT22;8901;52.088;5.084;2022-08-01T04:33:19;20.40;99.90
17567;DHT22;8901;52.088;5.084;2022-08-01T04:35:47;20.50;99.90
17567;DHT22;8901;52.088;5.084;2022-08-01T04:38:19;20.50;99.90
17567;DHT22;8901;52.088;5.084;2022-08-01T04:40:49;20.40;99.90
17567;DHT22;8901;52.088;5.084;2022-08-01T04:43:17;20.40;99.90
17567;DHT22;8901;52.088;5.084;2022-08-01T04:45:46;20.40;99.90
17567;DHT22;8901;52.088;5.084;2022-08-01T04:48:15;20.40;99.90
17567;DHT22;8901;52.088;5.084;2022-08-01T04:50:43;20.50;99.90
17567;DHT22;8901;52.088;5.084;2022-08-01T04:53:13;20.40;99.90
17567;DHT22;8901;52.088;5.084;2022-08-01T04:55:42;20.40;99.90
17567;DHT22;8901;52.088;5.084;2022-08-01T04:58:09;20.20;99.90
17567;DHT22;8901;52.088;5.084;2022-08-01T05:00:36;20.30;99.90
17567;DHT22;8901;52.088;5.084;2022-08-01T05:03:04;20.20;99.90
17567;DHT22;8901;52.088;5.084;2022-08-01T05:05:31;20.10;99.90
17567;DHT22;8901;52.088;5.084;2022-08-01T05:07:58;20.00;99.90
17567;DHT22;8901;52.088;5.084;2022-08-01T05:10:25;19.60;99.90
17567;DHT22;8901;52.088;5.084;2022-08-01T05:12:52;19.60;99.90
17567;DHT22;8901;52.088;5.084;2022-08-01T05:15:19;19.20;99.90
17567;DHT22;8901;52.088;5.084;2022-08-01T05:17:46;19.10;99.90
17567;DHT22;8901;52.088;5.084;2022-08-01T05:20:14;18.80;99.90
17567;DHT22;8901;52.088;5.084;2022-08-01T05:22:41;18.70;99.90
17567;DHT22;8901;52.088;5.084;2022-08-01T05:25:09;18.60;99.90
17567;DHT22;8901;52.088;5.084;2022-08-01T05:27:36;18.80;99.90
17567;DHT22;8901;52.088;5.084;2022-08-01T05:30:06;18.90;99.90
17567;DHT22;8901;52.088;5.084;2022-08-01T05:32:34;18.90;99.90
17567;DHT22;8901;52.088;5.084;2022-08-01T05:35:02;18.90;99.90
17567;DHT22;8901;52.088;5.084;2022-08-01T05:37:30;18.90;99.90
17567;DHT22;8901;52.088;5.084;2022-08-01T05:39:57;18.90;99.90
17567;DHT22;8901;52.088;5.084;2022-08-01T05:42:24;18.90;99.90
17567;DHT22;8901;52.088;5.084;2022-08-01T05:44:51;18.80;99.90
17567;DHT22;8901;52.088;5.084;2022-08-01T05:47:18;18.80;99.90
17567;DHT22;8901;52.088;5.084;2022-08-01T05:49:45;18.70;99.90
17567;DHT22;8901;52.088;5.084;2022-08-01T05:52:12;18.90;99.90
17567;DHT22;8901;52.088;5.084;2022-08-01T05:54:40;18.80;99.90
17567;DHT22;8901;52.088;5.084;2022-08-01T05:57:07;18.90;99.90
17567;DHT22;8901;52.088;5.084;2022-08-01T05:59:34;18.90;99.90
17567;DHT22;8901;52.088;5.084;2022-08-01T06:02:01;19.00;99.90
17567;DHT22;8901;52.088;5.084;2022-08-01T06:04:29;19.20;99.90
17567;DHT22;8901;52.088;5.084;2022-08-01T06:06:56;19.40;99.90
17567;DHT22;8901;52.088;5.084;2022-08-01T06:09:23;19.20;99.90
17567;DHT22;8901;52.088;5.084;2022-08-01T06:11:52;19.20;99.90
17567;DHT22;8901;52.088;5.084;2022-08-01T06:14:19;19.20;99.90
17567;DHT22;8901;52.088;5.084;2022-08-01T06:16:46;18.90;99.90
17567;DHT22;8901;52.088;5.084;2022-08-01T06:19:15;19.10;99.90
17567;DHT22;8901;52.088;5.084;2022-08-01T06:21:43;18.90;99.90
17567;DHT22;8901;52.088;5.084;2022-08-01T06:24:09;19.00;99.90
17567;DHT22;8901;52.088;5.084;2022-08-01T06:26:36;18.90;99.90
17567;DHT22;8901;52.088;5.084;2022-08-01T06:29:04;19.00;99.90
17567;DHT22;8901;52.088;5.084;2022-08-01T06:31:31;19.20;99.90
17567;DHT22;8901;52.088;5.084;2022-08-01T06:33:58;19.20;99.90
17567;DHT22;8901;52.088;5.084;2022-08-01T06:36:25;19.00;99.90
17567;DHT22;8901;52.088;5.084;2022-08-01T06:38:52;18.80;99.90
17567;DHT22;8901;52.088;5.084;2022-08-01T06:41:19;18.90;99.90
17567;DHT22;8901;52.088;5.084;2022-08-01T06:43:45;18.90;99.90
17567;DHT22;8901;52.088;5.084;2022-08-01T06:46:14;19.00;99.90
17567;DHT22;8901;52.088;5.084;2022-08-01T06:48:40;19.00;99.90
17567;DHT22;8901;52.088;5.084;2022-08-01T06:51:08;18.90;99.90
17567;DHT22;8901;52.088;5.084;2022-08-01T06:53:36;18.70;99.90
17567;DHT22;8901;52.088;5.084;2022-08-01T06:56:04;18.60;99.90
17567;DHT22;8901;52.088;5.084;2022-08-01T06:58:30;18.70;99.90
17567;DHT22;8901;52.088;5.084;2022-08-01T07:00:57;18.60;99.90
17567;DHT22;8901;52.088;5.084;2022-08-01T07:03:26;18.60;99.90
17567;DHT22;8901;52.088;5.084;2022-08-01T07:05:53;18.50;99.90
17567;DHT22;8901;52.088;5.084;2022-08-01T07:08:20;18.40;99.90
17567;DHT22;8901;52.088;5.084;2022-08-01T07:10:47;18.40;99.90
17567;DHT22;8901;52.088;5.084;2022-08-01T07:13:14;18.50;99.90
17567;DHT22;8901;52.088;5.084;2022-08-01T07:15:46;18.60;99.90
17567;DHT22;8901;52.088;5.084;2022-08-01T07:18:12;18.60;99.90
17567;DHT22;8901;52.088;5.084;2022-08-01T07:20:41;18.60;99.90
17567;DHT22;8901;52.088;5.084;2022-08-01T07:23:08;18.50;99.90
17567;DHT22;8901;52.088;5.084;2022-08-01T07:25:35;18.50;99.90
17567;DHT22;8901;52.088;5.084;2022-08-01T07:28:02;18.60;99.90
17567;DHT22;8901;52.088;5.084;2022-08-01T07:30:30;18.50;99.90
17567;DHT22;8901;52.088;5.084;2022-08-01T07:32:57;18.30;99.90
17567;DHT22;8901;52.088;5.084;2022-08-01T07:35:24;18.40;99.90
17567;DHT22;8901;52.088;5.084;2022-08-01T07:37:52;18.40;99.90
17567;DHT22;8901;52.088;5.084;2022-08-01T07:40:19;18.30;99.90
17567;DHT22;8901;52.088;5.084;2022-08-01T07:42:47;18.20;99.90
17567;DHT22;8901;52.088;5.084;2022-08-01T07:45:14;18.30;99.90
17567;DHT22;8901;52.088;5.084;2022-08-01T07:47:41;18.30;99.90
17567;DHT22;8901;52.088;5.084;2022-08-01T07:50:09;18.40;99.90
17567;DHT22;8901;52.088;5.084;2022-08-01T07:52:36;18.60;99.90
17567;DHT22;8901;52.088;5.084;2022-08-01T07:55:06;18.60;99.90
17567;DHT22;8901;52.088;5.084;2022-08-01T07:57:33;18.50;99.90
17567;DHT22;8901;52.088;5.084;2022-08-01T08:00:00;18.70;99.90
17567;DHT22;8901;52.088;5.084;2022-08-01T08:02:28;18.80;99.90
17567;DHT22;8901;52.088;5.084;2022-08-01T08:04:55;18.80;99.90
17567;DHT22;8901;52.088;5.084;2022-08-01T08:07:22;19.00;99.90
17567;DHT22;8901;52.088;5.084;2022-08-01T08:09:49;18.80;99.90
17567;DHT22;8901;52.088;5.084;2022-08-01T08:12:17;18.90;99.90
17567;DHT22;8901;52.088;5.084;2022-08-01T08:14:44;18.90;99.90
17567;DHT22;8901;52.088;5.084;2022-08-01T08:17:11;18.90;99.90
17567;DHT22;8901;52.088;5.084;2022-08-01T08:19:38;18.90;99.90
17567;DHT22;8901;52.088;5.084;2022-08-01T08:22:06;19.00;99.90
17567;DHT22;8901;52.088;5.084;2022-08-01T08:24:33;19.10;99.90
17567;DHT22;8901;52.088;5.084;2022-08-01T08:27:00;19.00;99.90
17567;DHT22;8901;52.088;5.084;2022-08-01T08:29:29;19.20;99.90
17567;DHT22;8901;52.088;5.084;2022-08-01T08:31:58;19.30;99.90
17567;DHT22;8901;52.088;5.084;2022-08-01T08:34:26;19.30;99.90
17567;DHT22;8901;52.088;5.084;2022-08-01T08:36:53;19.30;99.90
17567;DHT22;8901;52.088;5.084;2022-08-01T08:39:22;19.30;99.90
17567;DHT22;8901;52.088;5.084;2022-08-01T08:41:49;19.40;99.90
17567;DHT22;8901;52.088;5.084;2022-08-01T08:44:16;19.20;99.90
17567;DHT22;8901;52.088;5.084;2022-08-01T08:46:47;19.10;99.90
17567;DHT22;8901;52.088;5.084;2022-08-01T08:49:17;19.20;99.90
17567;DHT22;8901;52.088;5.084;2022-08-01T08:51:47;19.20;99.90
17567;DHT22;8901;52.088;5.084;2022-08-01T08:54:15;19.10;99.90
17567;DHT22;8901;52.088;5.084;2022-08-01T08:56:43;19.30;99.90
17567;DHT22;8901;52.088;5.084;2022-08-01T08:59:12;19.20;99.90
17567;DHT22;8901;52.088;5.084;2022-08-01T09:01:40;19.30;99.90
17567;DHT22;8901;52.088;5.084;2022-08-01T09:04:08;19.30;99.90
17567;DHT22;8901;52.088;5.084;2022-08-01T09:06:35;19.40;99.90
17567;DHT22;8901;52.088;5.084;2022-08-01T09:09:03;19.50;99.90
17567;DHT22;8901;52.088;5.084;2022-08-01T09:11:32;19.50;99.90
17567;DHT22;8901;52.088;5.084;2022-08-01T09:14:07;19.50;99.90
17567;DHT22;8901;52.088;5.084;2022-08-01T09:16:39;19.90;99.90
17567;DHT22;8901;52.088;5.084;2022-08-01T09:19:11;20.10;99.90
17567;DHT22;8901;52.088;5.084;2022-08-01T09:21:39;20.30;99.90
17567;DHT22;8901;52.088;5.084;2022-08-01T09:24:14;20.40;99.90
17567;DHT22;8901;52.088;5.084;2022-08-01T09:26:43;20.20;99.90
17567;DHT22;8901;52.088;5.084;2022-08-01T09:29:17;19.90;99.90
17567;DHT22;8901;52.088;5.084;2022-08-01T09:31:47;20.30;99.90
17567;DHT22;8901;52.088;5.084;2022-08-01T09:34:25;20.30;99.90
17567;DHT22;8901;52.088;5.084;2022-08-01T09:36:53;20.30;99.90
17567;DHT22;8901;52.088;5.084;2022-08-01T09:39:42;20.30;99.90
17567;DHT22;8901;52.088;5.084;2022-08-01T09:42:20;20.30;99.90
17567;DHT22;8901;52.088;5.084;2022-08-01T09:45:05;20.00;99.90
17567;DHT22;8901;52.088;5.084;2022-08-01T09:47:37;20.10;99.90
17567;DHT22;8901;52.088;5.084;2022-08-01T09:50:07;20.20;99.90
17567;DHT22;8901;52.088;5.084;2022-08-01T09:52:34;20.30;99.90
17567;DHT22;8901;52.088;5.084;2022-08-01T09:55:04;20.00;99.90
17567;DHT22;8901;52.088;5.084;2022-08-01T09:57:54;19.90;99.90
17567;DHT22;8901;52.088;5.084;2022-08-01T10:00:22;20.20;99.90
17567;DHT22;8901;52.088;5.084;2022-08-01T10:03:00;20.20;99.90
17567;DHT22;8901;52.088;5.084;2022-08-01T10:05:46;20.20;99.90
17567;DHT22;8901;52.088;5.084;2022-08-01T10:08:13;20.30;99.90
17567;DHT22;8901;52.088;5.084;2022-08-01T10:10:40;20.40;99.90
17567;DHT22;8901;52.088;5.084;2022-08-01T10:13:11;19.90;99.90
17567;DHT22;8901;52.088;5.084;2022-08-01T10:15:39;20.20;99.90
17567;DHT22;8901;52.088;5.084;2022-08-01T10:18:12;20.30;99.90
17567;DHT22;8901;52.088;5.084;2022-08-01T10:20:44;20.10;99.90
17567;DHT22;8901;52.088;5.084;2022-08-01T10:23:16;20.00;99.90
17567;DHT22;8901;52.088;5.084;2022-08-01T10:25:44;20.00;99.90
17567;DHT22;8901;52.088;5.084;2022-08-01T10:28:14;20.20;99.90
17567;DHT22;8901;52.088;5.084;2022-08-01T10:30:44;20.30;99.90
17567;DHT22;8901;52.088;5.084;2022-08-01T10:33:16;20.60;99.90
17567;DHT22;8901;52.088;5.084;2022-08-01T10:35:45;20.20;99.90
17567;DHT22;8901;52.088;5.084;2022-08-01T10:38:13;20.30;99.90
17567;DHT22;8901;52.088;5.084;2022-08-01T10:44:50;20.50;99.90
17567;DHT22;8901;52.088;5.084;2022-08-01T10:47:23;20.80;99.90
17567;DHT22;8901;52.088;5.084;2022-08-01T10:49:58;20.80;99.90
17567;DHT22;8901;52.088;5.084;2022-08-01T10:52:28;20.90;99.90
17567;DHT22;8901;52.088;5.084;2022-08-01T10:55:02;21.20;99.90
17567;DHT22;8901;52.088;5.084;2022-08-01T10:57:41;20.90;99.90
17567;DHT22;8901;52.088;5.084;2022-08-01T11:00:17;20.80;99.90
17567;DHT22;8901;52.088;5.084;2022-08-01T11:02:57;20.70;99.90
17567;DHT22;8901;52.088;5.084;2022-08-01T11:05:27;20.80;99.90
17567;DHT22;8901;52.088;5.084;2022-08-01T11:07:55;20.70;99.90
17567;DHT22;8901;52.088;5.084;2022-08-01T11:10:25;20.80;99.90
17567;DHT22;8901;52.088;5.084;2022-08-01T11:12:54;20.80;99.90
17567;DHT22;8901;52.088;5.084;2022-08-01T11:15:23;20.60;99.90
17567;DHT22;8901;52.088;5.084;2022-08-01T11:17:52;20.80;99.90
17567;DHT22;8901;52.088;5.084;2022-08-01T11:20:21;20.80;99.90
17567;DHT22;8901;52.088;5.084;2022-08-01T11:26:14;20.70;99.90
17567;DHT22;8901;52.088;5.084;2022-08-01T11:28:48;20.90;99.90
17567;DHT22;8901;52.088;5.084;2022-08-01T11:31:35;20.70;99.90
17567;DHT22;8901;52.088;5.084;2022-08-01T11:34:01;20.70;99.90
17567;DHT22;8901;52.088;5.084;2022-08-01T11:36:28;20.80;99.90
17567;DHT22;8901;52.088;5.084;2022-08-01T11:39:16;20.90;99.90
17567;DHT22;8901;52.088;5.084;2022-08-01T11:41:44;21.20;99.90
17567;DHT22;8901;52.088;5.084;2022-08-01T11:44:14;21.00;99.90
17567;DHT22;8901;52.088;5.084;2022-08-01T11:49:50;21.00;99.90
17567;DHT22;8901;52.088;5.084;2022-08-01T11:52:25;21.40;99.90
17567;DHT22;8901;52.088;5.084;2022-08-01T11:54:53;21.10;99.90
17567;DHT22;8901;52.088;5.084;2022-08-01T11:57:23;21.50;99.90
17567;DHT22;8901;52.088;5.084;2022-08-01T11:59:53;21.50;99.90
17567;DHT22;8901;52.088;5.084;2022-08-01T12:02:22;21.70;99.90
17567;DHT22;8901;52.088;5.084;2022-08-01T12:04:53;21.90;99.90
17567;DHT22;8901;52.088;5.084;2022-08-01T12:07:21;22.00;99.90
17567;DHT22;8901;52.088;5.084;2022-08-01T12:09:55;21.80;99.90
17567;DHT22;8901;52.088;5.084;2022-08-01T12:12:23;21.80;99.90
17567;DHT22;8901;52.088;5.084;2022-08-01T12:14:53;21.80;99.90
17567;DHT22;8901;52.088;5.084;2022-08-01T12:17:28;22.20;99.90
17567;DHT22;8901;52.088;5.084;2022-08-01T12:19:57;22.40;99.90
17567;DHT22;8901;52.088;5.084;2022-08-01T12:22:24;22.40;99.90
17567;DHT22;8901;52.088;5.084;2022-08-01T12:24:52;22.40;99.90
17567;DHT22;8901;52.088;5.084;2022-08-01T12:27:26;22.40;99.90
17567;DHT22;8901;52.088;5.084;2022-08-01T12:29:56;22.50;99.90
17567;DHT22;8901;52.088;5.084;2022-08-01T12:32:26;22.10;99.90
17567;DHT22;8901;52.088;5.084;2022-08-01T12:35:05;22.30;99.90
17567;DHT22;8901;52.088;5.084;2022-08-01T12:37:36;22.10;99.90
17567;DHT22;8901;52.088;5.084;2022-08-01T12:40:14;22.50;99.90
17567;DHT22;8901;52.088;5.084;2022-08-01T12:42:46;22.10;99.90
17567;DHT22;8901;52.088;5.084;2022-08-01T12:45:16;22.10;99.90
17567;DHT22;8901;52.088;5.084;2022-08-01T12:47:45;22.50;99.90
17567;DHT22;8901;52.088;5.084;2022-08-01T12:50:17;22.80;99.90
17567;DHT22;8901;52.088;5.084;2022-08-01T12:52:45;22.50;99.90
17567;DHT22;8901;52.088;5.084;2022-08-01T12:55:15;22.60;99.90
17567;DHT22;8901;52.088;5.084;2022-08-01T12:57:45;22.60;99.90
17567;DHT22;8901;52.088;5.084;2022-08-01T13:00:20;22.40;99.90
17567;DHT22;8901;52.088;5.084;2022-08-01T13:02:49;22.50;99.90
17567;DHT22;8901;52.088;5.084;2022-08-01T13:05:25;22.50;99.90
17567;DHT22;8901;52.088;5.084;2022-08-01T13:07:53;22.50;99.90
17567;DHT22;8901;52.088;5.084;2022-08-01T13:10:29;22.40;99.90
17567;DHT22;8901;52.088;5.084;2022-08-01T13:12:57;22.50;99.90
17567;DHT22;8901;52.088;5.084;2022-08-01T13:15:29;22.60;99.90
17567;DHT22;8901;52.088;5.084;2022-08-01T13:17:58;22.50;99.90
17567;DHT22;8901;52.088;5.084;2022-08-01T13:20:32;22.10;99.90
17567;DHT22;8901;52.088;5.084;2022-08-01T13:23:13;22.50;99.90
17567;DHT22;8901;52.088;5.084;2022-08-01T13:25:52;22.20;99.90
17567;DHT22;8901;52.088;5.084;2022-08-01T13:28:21;22.60;99.90
17567;DHT22;8901;52.088;5.084;2022-08-01T13:30:57;22.70;99.90
17567;DHT22;8901;52.088;5.084;2022-08-01T13:33:27;22.70;99.90
17567;DHT22;8901;52.088;5.084;2022-08-01T13:35:56;23.10;99.90
17567;DHT22;8901;52.088;5.084;2022-08-01T13:38:24;22.90;99.90
17567;DHT22;8901;52.088;5.084;2022-08-01T13:41:43;22.40;99.90
17567;DHT22;8901;52.088;5.084;2022-08-01T13:44:10;22.50;99.90
17567;DHT22;8901;52.088;5.084;2022-08-01T13:46:52;22.50;99.90
17567;DHT22;8901;52.088;5.084;2022-08-01T13:49:21;22.10;99.90
17567;DHT22;8901;52.088;5.084;2022-08-01T13:51:49;22.40;99.90
17567;DHT22;8901;52.088;5.084;2022-08-01T13:54:16;22.00;99.90
17567;DHT22;8901;52.088;5.084;2022-08-01T13:56:43;22.30;99.90
17567;DHT22;8901;52.088;5.084;2022-08-01T13:59:10;22.30;99.90
17567;DHT22;8901;52.088;5.084;2022-08-01T14:01:37;22.30;99.90
17567;DHT22;8901;52.088;5.084;2022-08-01T14:04:04;22.20;99.90
17567;DHT22;8901;52.088;5.084;2022-08-01T14:06:32;22.30;99.90
17567;DHT22;8901;52.088;5.084;2022-08-01T14:09:02;22.40;99.90
17567;DHT22;8901;52.088;5.084;2022-08-01T14:11:29;22.40;99.90
17567;DHT22;8901;52.088;5.084;2022-08-01T14:13:57;22.20;99.90
17567;DHT22;8901;52.088;5.084;2022-08-01T14:16:24;22.00;99.90
17567;DHT22;8901;52.088;5.084;2022-08-01T14:18:52;22.50;99.90
17567;DHT22;8901;52.088;5.084;2022-08-01T14:21:23;22.40;99.90
17567;DHT22;8901;52.088;5.084;2022-08-01T14:23:50;22.20;99.90
17567;DHT22;8901;52.088;5.084;2022-08-01T14:26:18;22.20;99.90
17567;DHT22;8901;52.088;5.084;2022-08-01T14:28:45;22.70;99.90
17567;DHT22;8901;52.088;5.084;2022-08-01T14:31:12;22.80;99.90
17567;DHT22;8901;52.088;5.084;2022-08-01T14:33:39;22.80;99.90
17567;DHT22;8901;52.088;5.084;2022-08-01T14:36:06;22.90;99.90
17567;DHT22;8901;52.088;5.084;2022-08-01T14:38:33;22.80;99.90
17567;DHT22;8901;52.088;5.084;2022-08-01T14:41:00;22.10;99.90
17567;DHT22;8901;52.088;5.084;2022-08-01T14:43:30;22.10;99.90
17567;DHT22;8901;52.088;5.084;2022-08-01T14:45:58;22.60;99.90
17567;DHT22;8901;52.088;5.084;2022-08-01T14:48:25;22.50;99.90
17567;DHT22;8901;52.088;5.084;2022-08-01T14:50:52;22.30;99.90
17567;DHT22;8901;52.088;5.084;2022-08-01T14:53:18;22.50;99.90
17567;DHT22;8901;52.088;5.084;2022-08-01T14:55:45;22.70;99.90
17567;DHT22;8901;52.088;5.084;2022-08-01T14:58:12;22.60;99.90
17567;DHT22;8901;52.088;5.084;2022-08-01T15:00:41;22.10;99.90
17567;DHT22;8901;52.088;5.084;2022-08-01T15:03:09;22.50;99.90
17567;DHT22;8901;52.088;5.084;2022-08-01T15:05:36;22.60;99.90
17567;DHT22;8901;52.088;5.084;2022-08-01T15:08:04;22.40;99.90
17567;DHT22;8901;52.088;5.084;2022-08-01T15:10:32;22.10;99.90
17567;DHT22;8901;52.088;5.084;2022-08-01T15:13:00;22.10;99.90
17567;DHT22;8901;52.088;5.084;2022-08-01T15:15:27;22.10;99.90
17567;DHT22;8901;52.088;5.084;2022-08-01T15:17:56;22.00;99.90
17567;DHT22;8901;52.088;5.084;2022-08-01T15:20:26;22.50;99.90
17567;DHT22;8901;52.088;5.084;2022-08-01T15:22:54;22.30;99.90
17567;DHT22;8901;52.088;5.084;2022-08-01T15:25:22;22.30;99.90
17567;DHT22;8901;52.088;5.084;2022-08-01T15:27:51;22.10;99.90
17567;DHT22;8901;52.088;5.084;2022-08-01T15:30:18;22.60;99.90
17567;DHT22;8901;52.088;5.084;2022-08-01T15:32:44;22.40;99.90
17567;DHT22;8901;52.088;5.084;2022-08-01T15:35:13;22.70;99.90
17567;DHT22;8901;52.088;5.084;2022-08-01T15:37:40;22.50;99.90
17567;DHT22;8901;52.088;5.084;2022-08-01T15:40:08;22.70;99.90
17567;DHT22;8901;52.088;5.084;2022-08-01T15:42:38;22.50;99.90
17567;DHT22;8901;52.088;5.084;2022-08-01T15:45:07;22.50;99.90
17567;DHT22;8901;52.088;5.084;2022-08-01T15:47:34;22.80;99.90
17567;DHT22;8901;52.088;5.084;2022-08-01T15:50:02;22.60;99.90
17567;DHT22;8901;52.088;5.084;2022-08-01T15:52:31;22.60;99.90
17567;DHT22;8901;52.088;5.084;2022-08-01T15:54:58;22.50;99.90
17567;DHT22;8901;52.088;5.084;2022-08-01T15:57:26;22.20;99.90
17567;DHT22;8901;52.088;5.084;2022-08-01T15:59:54;22.20;99.90
17567;DHT22;8901;52.088;5.084;2022-08-01T16:02:21;22.50;99.90
17567;DHT22;8901;52.088;5.084;2022-08-01T16:04:48;22.60;99.90
17567;DHT22;8901;52.088;5.084;2022-08-01T16:07:15;23.00;99.90
17567;DHT22;8901;52.088;5.084;2022-08-01T16:09:43;22.70;99.90